createdAt,value
2023-03-12T00:02:21.525Z,4.28
2023-03-12T00:04:48.280Z,4.20
2023-03-12T00:07:15.077Z,4.05
2023-03-12T00:09:41.799Z,4.38
2023-03-12T00:12:08.833Z,3.97
2023-03-12T00:14:36.439Z,5.15
2023-03-12T00:17:03.524Z,4.47
2023-03-12T00:19:30.246Z,5.13
2023-03-12T00:21:57.015Z,5.32
2023-03-12T00:24:24.112Z,4.78
2023-03-12T00:26:50.869Z,5.13
2023-03-12T00:29:17.613Z,5.43
2023-03-12T00:31:44.556Z,4.70
2023-03-12T00:34:11.631Z,5.00
2023-03-12T00:36:40.626Z,5.22
2023-03-12T00:39:07.614Z,5.43
2023-03-12T00:41:34.618Z,4.93
2023-03-12T00:44:01.715Z,4.82
2023-03-12T00:46:28.611Z,4.70
2023-03-12T00:48:55.481Z,4.68
2023-03-12T00:51:22.344Z,4.68
2023-03-12T00:53:49.218Z,4.45
2023-03-12T00:56:16.049Z,4.68
2023-03-12T00:58:43.260Z,4.68
2023-03-12T01:01:10.291Z,6.10
2023-03-12T01:03:37.516Z,5.30
2023-03-12T01:06:05.455Z,5.10
2023-03-12T01:08:33.374Z,4.80
2023-03-12T01:11:00.361Z,5.53
2023-03-12T01:13:27.207Z,5.50
2023-03-12T01:15:54.142Z,5.22
2023-03-12T01:18:21.853Z,4.85
2023-03-12T01:20:49.049Z,4.95
2023-03-12T01:23:16.179Z,5.40
2023-03-12T01:25:43.452Z,5.35
2023-03-12T01:28:10.220Z,4.70
2023-03-12T01:30:36.979Z,5.30
2023-03-12T01:33:04.685Z,5.38
2023-03-12T01:35:37.347Z,5.30
2023-03-12T01:38:04.669Z,5.05
2023-03-12T01:40:34.716Z,5.30
2023-03-12T01:43:26.306Z,5.20
2023-03-12T01:46:16.034Z,5.30
2023-03-12T01:48:55.092Z,5.85
2023-03-12T01:51:25.502Z,5.07
2023-03-12T01:53:56.195Z,5.10
2023-03-12T01:56:27.866Z,4.63
2023-03-12T01:58:58.450Z,5.37
2023-03-12T02:01:27.439Z,5.28
2023-03-12T02:03:58.706Z,5.32
2023-03-12T02:06:32.804Z,5.22
2023-03-12T02:09:01.867Z,5.70
2023-03-12T02:11:29.433Z,5.50
2023-03-12T02:13:56.312Z,5.60
2023-03-12T02:16:23.326Z,5.18
2023-03-12T02:18:52.701Z,5.88
2023-03-12T02:21:29.404Z,4.95
2023-03-12T02:24:09.760Z,4.95
2023-03-12T02:26:38.325Z,5.40
2023-03-12T02:29:06.866Z,5.00
2023-03-12T02:31:41.733Z,4.68
2023-03-12T02:34:09.334Z,5.00
2023-03-12T02:36:36.747Z,4.45
2023-03-12T02:39:04.008Z,4.60
2023-03-12T02:41:36.426Z,4.38
2023-03-12T02:44:19.595Z,3.83
2023-03-12T02:46:51.941Z,4.80
2023-03-12T02:49:20.394Z,3.92
2023-03-12T02:51:49.029Z,4.57
2023-03-12T02:54:18.015Z,4.85
2023-03-12T02:56:45.717Z,4.60
2023-03-12T02:59:14.394Z,4.82
2023-03-12T03:01:43.795Z,3.45
2023-03-12T03:04:11.772Z,3.88
2023-03-12T03:06:41.148Z,4.03
2023-03-12T03:09:08.095Z,3.50
2023-03-12T03:11:35.417Z,4.00
2023-03-12T03:14:04.442Z,4.03
2023-03-12T03:16:31.672Z,4.53
2023-03-12T03:18:59.122Z,3.92
2023-03-12T03:21:25.904Z,3.80
2023-03-12T03:23:52.702Z,3.65
2023-03-12T03:26:23.892Z,3.30
2023-03-12T03:28:51.621Z,3.40
2023-03-12T03:31:19.300Z,3.30
2023-03-12T03:33:46.998Z,3.58
2023-03-12T03:36:14.973Z,3.22
2023-03-12T03:38:50.544Z,2.53
2023-03-12T03:41:19.797Z,3.17
2023-03-12T03:43:47.563Z,2.90
2023-03-12T03:46:16.563Z,3.28
2023-03-12T03:48:47.805Z,2.95
2023-03-12T03:51:15.544Z,2.75
2023-03-12T03:53:45.453Z,3.08
2023-03-12T03:56:15.869Z,2.90
2023-03-12T03:58:47.384Z,3.00
2023-03-12T04:01:15.876Z,2.50
2023-03-12T04:03:44.498Z,3.20
2023-03-12T04:06:12.197Z,3.20
2023-03-12T04:08:40.215Z,2.88
2023-03-12T04:11:12.819Z,2.80
2023-03-12T04:13:39.724Z,2.75
2023-03-12T04:16:08.206Z,2.80
2023-03-12T04:18:36.253Z,3.17
2023-03-12T04:21:06.223Z,2.97
2023-03-12T04:23:34.212Z,2.70
2023-03-12T04:26:01.154Z,2.78
2023-03-12T04:28:29.514Z,3.40
2023-03-12T04:31:01.526Z,2.42
2023-03-12T04:33:37.469Z,2.97
2023-03-12T04:36:05.908Z,2.90
2023-03-12T04:38:34.596Z,2.95
2023-03-12T04:41:11.280Z,3.30
2023-03-12T04:43:41.851Z,2.97
2023-03-12T04:46:09.977Z,3.13
2023-03-12T04:48:37.805Z,3.10
2023-03-12T04:51:05.456Z,3.05
2023-03-12T04:53:32.771Z,3.10
2023-03-12T04:55:59.832Z,3.28
2023-03-12T04:58:28.391Z,3.03
2023-03-12T05:00:55.155Z,3.53
2023-03-12T05:03:22.340Z,4.30
2023-03-12T05:05:49.304Z,3.97
2023-03-12T05:08:16.180Z,4.63
2023-03-12T05:10:45.416Z,3.85
2023-03-12T05:13:16.487Z,3.28
2023-03-12T05:15:44.668Z,2.95
2023-03-12T05:18:11.480Z,3.50
2023-03-12T05:20:39.302Z,3.75
2023-03-12T05:23:06.946Z,3.35
2023-03-12T05:25:33.792Z,3.70
2023-03-12T05:28:00.550Z,2.70
2023-03-12T05:30:27.694Z,3.22
2023-03-12T05:32:54.544Z,3.95
2023-03-12T05:35:21.693Z,3.40
2023-03-12T05:37:48.521Z,3.00
2023-03-12T05:40:15.569Z,3.45
2023-03-12T05:42:42.341Z,3.50
2023-03-12T05:45:09.904Z,3.03
2023-03-12T05:47:40.067Z,3.22
2023-03-12T05:50:07.410Z,4.07
2023-03-12T05:52:35.773Z,3.95
2023-03-12T05:55:02.768Z,4.10
2023-03-12T05:57:30.011Z,3.88
2023-03-12T05:59:57.236Z,3.20
2023-03-12T06:02:24.519Z,3.28
2023-03-12T06:04:51.248Z,3.35
2023-03-12T06:07:18.069Z,3.00
2023-03-12T06:09:44.802Z,3.95
2023-03-12T06:12:13.298Z,3.58
2023-03-12T06:14:40.037Z,3.50
2023-03-12T06:17:06.921Z,3.00
2023-03-12T06:19:33.759Z,3.05
2023-03-12T06:22:01.891Z,3.08
2023-03-12T06:24:28.648Z,2.83
2023-03-12T06:27:01.069Z,3.20
2023-03-12T06:29:27.781Z,2.92
2023-03-12T06:31:55.884Z,3.00
2023-03-12T06:34:22.662Z,3.20
2023-03-12T06:36:49.400Z,3.20
2023-03-12T06:39:16.091Z,2.97
2023-03-12T06:41:42.864Z,3.33
2023-03-12T06:44:09.870Z,3.00
2023-03-12T06:46:37.167Z,3.17
2023-03-12T06:49:04.296Z,3.60
2023-03-12T06:51:31.122Z,3.30
2023-03-12T06:53:57.891Z,3.20
2023-03-12T06:56:24.614Z,3.60
2023-03-12T06:58:51.300Z,3.85
2023-03-12T07:01:18.024Z,4.30
2023-03-12T07:03:44.780Z,3.72
2023-03-12T07:06:16.389Z,4.13
2023-03-12T07:08:43.648Z,3.40
2023-03-12T07:11:10.898Z,3.40
2023-03-12T07:13:37.735Z,3.88
2023-03-12T07:16:04.940Z,3.22
2023-03-12T07:18:31.785Z,4.05
2023-03-12T07:20:58.688Z,3.58
2023-03-12T07:23:25.648Z,3.70
2023-03-12T07:25:52.890Z,3.45
2023-03-12T07:28:20.538Z,3.30
2023-03-12T07:30:53.192Z,4.00
2023-03-12T07:33:21.777Z,3.65
2023-03-12T07:35:51.508Z,3.67
2023-03-12T07:38:18.934Z,3.65
2023-03-12T07:40:50.249Z,3.72
2023-03-12T07:43:18.134Z,3.13
2023-03-12T07:45:47.345Z,4.03
2023-03-12T07:48:14.144Z,2.95
2023-03-12T07:50:41.694Z,3.80
2023-03-12T07:53:08.565Z,3.42
2023-03-12T07:55:35.665Z,3.67
2023-03-12T07:58:03.018Z,3.50
2023-03-12T08:00:30.635Z,3.25
2023-03-12T08:02:58.296Z,3.90
2023-03-12T08:05:25.237Z,4.18
2023-03-12T08:07:52.464Z,3.80
2023-03-12T08:10:20.035Z,4.68
2023-03-12T08:12:47.045Z,4.60
2023-03-12T08:15:14.040Z,5.22
2023-03-12T08:17:41.454Z,4.90
2023-03-12T08:20:10.227Z,4.50
2023-03-12T08:22:37.943Z,5.20
2023-03-12T08:25:05.707Z,4.50
2023-03-12T08:27:33.765Z,4.60
2023-03-12T08:30:00.879Z,5.00
2023-03-12T08:32:27.894Z,5.10
2023-03-12T08:34:54.692Z,5.38
2023-03-12T08:37:21.984Z,5.30
2023-03-12T08:39:48.679Z,5.63
2023-03-12T08:42:15.451Z,6.00
2023-03-12T08:44:42.170Z,5.50
2023-03-12T08:47:08.890Z,6.15
2023-03-12T08:49:35.664Z,5.88
2023-03-12T08:52:02.451Z,6.18
2023-03-12T08:54:29.171Z,6.80
2023-03-12T08:56:56.000Z,6.57
2023-03-12T08:59:23.476Z,5.55
2023-03-12T09:01:51.131Z,6.50
2023-03-12T09:04:18.555Z,6.60
2023-03-12T09:06:45.597Z,6.43
2023-03-12T09:09:12.772Z,6.40
2023-03-12T09:11:40.848Z,6.85
2023-03-12T09:14:57.601Z,6.78
2023-03-12T09:16:55.188Z,5.40
2023-03-12T09:19:22.053Z,5.05
2023-03-12T09:21:49.076Z,5.30
2023-03-12T09:24:15.935Z,5.60
2023-03-12T09:26:42.676Z,5.60
2023-03-12T09:29:09.490Z,4.72
2023-03-12T09:31:36.582Z,4.78
2023-03-12T09:34:04.712Z,5.85
2023-03-12T09:36:31.840Z,4.70
2023-03-12T09:38:58.695Z,4.85
2023-03-12T09:41:28.499Z,4.35
2023-03-12T09:44:13.231Z,4.32
2023-03-12T09:46:56.104Z,3.38
2023-03-12T09:49:44.644Z,3.85
2023-03-12T09:52:24.848Z,3.88
2023-03-12T09:55:28.176Z,4.18
2023-03-12T09:57:56.741Z,3.45
2023-03-12T10:00:31.785Z,3.35
2023-03-12T10:03:07.195Z,3.30
2023-03-12T10:05:47.275Z,3.20
2023-03-12T10:08:25.064Z,3.03
2023-03-12T10:11:22.838Z,3.08
2023-03-12T10:14:06.678Z,2.72
2023-03-12T10:16:48.204Z,2.78
2023-03-12T10:19:46.447Z,2.70
2023-03-12T10:22:40.651Z,2.55
2023-03-12T10:25:12.122Z,2.60
2023-03-12T10:27:40.450Z,2.28
2023-03-12T10:30:25.762Z,2.00
2023-03-12T10:33:06.837Z,1.88
2023-03-12T10:35:33.839Z,1.70
2023-03-12T10:38:02.709Z,1.75
2023-03-12T10:40:35.796Z,1.80
2023-03-12T10:46:07.517Z,1.63
2023-03-12T10:48:34.279Z,1.20
2023-03-12T10:51:05.557Z,1.27
2023-03-12T10:53:36.887Z,1.10
2023-03-12T10:56:11.487Z,1.25
2023-03-12T10:58:42.401Z,1.00
2023-03-12T11:01:15.588Z,1.25
2023-03-12T11:03:43.408Z,0.70
2023-03-12T11:06:19.585Z,0.80
2023-03-12T11:09:20.262Z,0.90
2023-03-12T11:11:48.638Z,0.85
2023-03-12T11:14:21.522Z,0.60
2023-03-12T11:16:49.281Z,0.63
2023-03-12T11:19:30.925Z,0.60
2023-03-12T11:22:01.312Z,0.50
2023-03-12T11:24:28.547Z,0.60
2023-03-12T11:27:18.931Z,0.60
2023-03-12T11:29:50.334Z,0.70
2023-03-12T11:32:34.469Z,0.60
2023-03-12T11:35:02.016Z,0.50
2023-03-12T11:37:34.559Z,0.70
2023-03-12T11:40:17.023Z,0.50
2023-03-12T11:43:04.020Z,0.90
2023-03-12T11:46:22.155Z,0.82
2023-03-12T11:49:01.784Z,1.05
2023-03-12T11:52:07.313Z,1.10
2023-03-12T11:55:13.756Z,1.30
2023-03-12T11:57:55.310Z,1.20
2023-03-12T12:00:33.589Z,0.90
2023-03-12T12:03:39.284Z,1.10
2023-03-12T12:06:44.516Z,1.17
2023-03-12T12:09:30.422Z,1.27
2023-03-12T12:12:17.384Z,1.42
2023-03-12T12:15:15.241Z,1.25
2023-03-12T12:18:04.316Z,1.20
2023-03-12T12:20:53.146Z,1.50
2023-03-12T12:23:36.758Z,1.08
2023-03-12T12:26:08.366Z,1.88
2023-03-12T12:28:46.453Z,1.52
2023-03-12T12:31:32.262Z,1.40
2023-03-12T12:34:29.374Z,1.20
2023-03-12T12:37:24.775Z,1.20
2023-03-12T12:40:08.706Z,1.50
2023-03-12T12:42:43.792Z,1.38
2023-03-12T12:45:14.409Z,1.73
2023-03-12T12:48:06.130Z,1.60
2023-03-12T12:50:38.297Z,1.30
2023-03-12T12:53:21.831Z,1.40
2023-03-12T12:55:58.247Z,1.20
2023-03-12T12:59:25.158Z,1.38
2023-03-12T13:01:59.317Z,1.48
2023-03-12T13:04:33.382Z,0.98
2023-03-12T13:07:13.985Z,1.10
2023-03-12T13:09:50.621Z,1.13
2023-03-12T13:12:26.285Z,1.00
2023-03-12T13:14:55.806Z,0.90
2023-03-12T13:17:35.596Z,1.40
2023-03-12T13:20:13.581Z,1.02
2023-03-12T13:23:23.752Z,1.02
2023-03-12T13:25:56.650Z,1.05
2023-03-12T13:28:26.629Z,1.00
2023-03-12T13:30:54.345Z,0.88
2023-03-12T13:33:37.104Z,1.00
2023-03-12T13:36:11.883Z,1.02
2023-03-12T13:39:06.237Z,0.70
2023-03-12T13:41:49.963Z,0.90
2023-03-12T13:44:28.994Z,1.23
2023-03-12T13:47:11.016Z,0.77
2023-03-12T13:50:04.145Z,0.95
2023-03-12T13:52:33.963Z,0.85
2023-03-12T13:55:08.047Z,1.42
2023-03-12T13:57:54.544Z,1.08
2023-03-12T14:00:26.290Z,0.80
2023-03-12T14:03:23.411Z,0.98
2023-03-12T14:05:55.248Z,1.00
2023-03-12T14:08:43.909Z,1.00
2023-03-12T14:11:34.144Z,1.08
2023-03-12T14:14:27.473Z,0.70
2023-03-12T14:16:59.936Z,0.70
2023-03-12T14:19:33.763Z,0.82
2023-03-12T14:22:05.134Z,0.68
2023-03-12T14:24:40.276Z,0.98
2023-03-12T14:27:14.402Z,1.00
2023-03-12T14:29:49.078Z,1.02
2023-03-12T14:32:20.856Z,0.70
2023-03-12T14:35:06.610Z,0.80
2023-03-12T14:37:40.487Z,0.80
2023-03-12T14:40:40.594Z,1.20
2023-03-12T14:43:32.766Z,1.60
2023-03-12T14:46:05.479Z,1.45
2023-03-12T14:48:37.386Z,1.10
2023-03-12T14:51:06.928Z,1.10
2023-03-12T14:53:37.989Z,1.20
2023-03-12T14:56:14.981Z,1.10
2023-03-12T14:58:49.702Z,1.38
2023-03-12T15:01:23.865Z,1.50
2023-03-12T15:04:07.892Z,1.45
2023-03-12T15:06:44.667Z,1.40
2023-03-12T15:09:26.266Z,1.75
2023-03-12T15:11:59.683Z,1.58
2023-03-12T15:14:30.065Z,1.50
2023-03-12T15:17:00.342Z,1.52
2023-03-12T15:19:33.281Z,1.73
2023-03-12T15:22:00.668Z,1.73
2023-03-12T15:24:34.508Z,1.48
2023-03-12T15:27:19.978Z,1.35
2023-03-12T15:29:46.832Z,1.42
2023-03-12T15:32:15.732Z,1.42
2023-03-12T15:34:43.137Z,1.55
2023-03-12T15:37:21.070Z,1.52
2023-03-12T15:39:51.072Z,1.05
2023-03-12T15:42:21.840Z,1.85
2023-03-12T15:44:59.895Z,1.13
2023-03-12T15:47:39.508Z,1.40
2023-03-12T15:50:37.187Z,1.20
2023-03-12T15:53:11.973Z,1.33
2023-03-12T15:55:39.889Z,1.25
2023-03-12T15:58:29.793Z,1.50
2023-03-12T16:01:10.979Z,1.40
2023-03-12T16:03:39.006Z,1.45
2023-03-12T16:06:10.915Z,1.75
2023-03-12T16:08:40.935Z,1.80
2023-03-12T16:11:17.139Z,2.00
2023-03-12T16:13:45.686Z,1.77
2023-03-12T16:16:13.912Z,1.50
2023-03-12T16:18:42.196Z,2.30
2023-03-12T16:21:09.780Z,1.95
2023-03-12T16:23:37.178Z,1.60
2023-03-12T16:26:05.574Z,1.83
2023-03-12T16:28:35.220Z,2.20
2023-03-12T16:31:02.645Z,1.90
2023-03-12T16:33:32.852Z,1.50
2023-03-12T16:36:00.670Z,1.52
2023-03-12T16:38:27.635Z,1.55
2023-03-12T16:40:54.739Z,1.38
2023-03-12T16:43:29.201Z,1.42
2023-03-12T16:45:57.829Z,1.67
2023-03-12T16:48:25.582Z,1.75
2023-03-12T16:50:55.761Z,1.45
2023-03-12T16:53:23.295Z,1.60
2023-03-12T16:55:54.472Z,1.80
2023-03-12T16:58:23.290Z,1.73
2023-03-12T17:00:52.268Z,1.73
2023-03-12T17:03:32.349Z,1.58
2023-03-12T17:06:00.690Z,1.50
2023-03-12T17:08:28.021Z,1.50
2023-03-12T17:10:56.591Z,1.73
2023-03-12T17:13:28.630Z,1.90
2023-03-12T17:15:56.600Z,1.40
2023-03-12T17:18:23.578Z,1.95
2023-03-12T17:20:51.832Z,1.95
2023-03-12T17:23:19.456Z,2.05
2023-03-12T17:25:47.151Z,1.80
2023-03-12T17:28:15.484Z,1.60
2023-03-12T17:30:43.475Z,1.95
2023-03-12T17:33:14.025Z,1.80
2023-03-12T17:35:41.550Z,1.92
2023-03-12T17:38:09.080Z,1.85
2023-03-12T17:40:40.392Z,1.40
2023-03-12T17:43:07.211Z,1.52
2023-03-12T17:45:36.602Z,1.90
2023-03-12T17:48:03.909Z,1.70
2023-03-12T17:50:31.099Z,1.80
2023-03-12T17:52:57.907Z,1.60
2023-03-12T17:55:24.774Z,1.60
2023-03-12T17:57:51.660Z,1.55
2023-03-12T18:00:19.268Z,2.05
2023-03-12T18:02:46.096Z,1.73
2023-03-12T18:05:13.007Z,1.55
2023-03-12T18:07:40.159Z,1.90
2023-03-12T18:10:11.087Z,2.00
2023-03-12T18:12:39.057Z,1.83
2023-03-12T18:15:13.017Z,2.25
2023-03-12T18:17:40.982Z,2.22
2023-03-12T18:20:16.560Z,1.80
2023-03-12T18:22:46.605Z,2.20
2023-03-12T18:25:13.459Z,1.95
2023-03-12T18:27:40.684Z,2.45
2023-03-12T18:30:11.460Z,2.85
2023-03-12T18:32:39.076Z,1.73
2023-03-12T18:35:08.120Z,1.85
2023-03-12T18:37:35.036Z,2.35
2023-03-12T18:40:01.941Z,2.08
2023-03-12T18:42:28.792Z,2.03
2023-03-12T18:44:55.607Z,2.38
2023-03-12T18:47:22.780Z,2.58
2023-03-12T18:49:53.034Z,1.90
2023-03-12T18:52:20.061Z,3.45
2023-03-12T18:54:47.013Z,2.05
2023-03-12T18:57:13.927Z,2.50
2023-03-12T18:59:45.184Z,2.05
2023-03-12T19:02:12.396Z,2.00
2023-03-12T19:04:39.461Z,1.88
2023-03-12T19:07:07.541Z,1.67
2023-03-12T19:09:34.717Z,1.40
2023-03-12T19:12:01.560Z,1.95
2023-03-12T19:14:29.775Z,2.20
2023-03-12T19:16:57.960Z,2.92
2023-03-12T19:19:24.829Z,2.10
2023-03-12T19:21:51.693Z,1.92
2023-03-12T19:24:18.676Z,1.80
2023-03-12T19:26:45.548Z,2.05
2023-03-12T19:29:12.486Z,1.63
2023-03-12T19:31:39.502Z,1.85
2023-03-12T19:34:06.405Z,1.98
2023-03-12T19:36:33.269Z,1.85
2023-03-12T19:39:02.392Z,1.73
2023-03-12T19:41:31.184Z,1.60
2023-03-12T19:43:58.118Z,1.88
2023-03-12T19:46:25.031Z,2.17
2023-03-12T19:48:51.895Z,1.55
2023-03-12T19:51:18.745Z,2.10
2023-03-12T19:53:45.656Z,2.65
2023-03-12T19:56:12.519Z,2.30
2023-03-12T19:58:39.406Z,1.70
2023-03-12T20:01:06.250Z,1.75
2023-03-12T20:03:33.305Z,2.40
2023-03-12T20:06:00.595Z,2.75
2023-03-12T20:08:31.523Z,2.92
2023-03-12T20:11:06.645Z,2.40
2023-03-12T20:13:33.964Z,2.20
2023-03-12T20:16:01.493Z,3.00
2023-03-12T20:18:28.483Z,2.10
2023-03-12T20:20:55.379Z,2.60
2023-03-12T20:23:22.442Z,2.42
2023-03-12T20:25:50.519Z,2.78
2023-03-12T20:28:18.072Z,2.13
2023-03-12T20:30:45.131Z,2.30
2023-03-12T20:33:12.203Z,2.65
2023-03-12T20:35:39.668Z,2.65
2023-03-12T20:38:06.663Z,2.08
2023-03-12T20:40:33.599Z,2.40
2023-03-12T20:43:04.730Z,1.83
2023-03-12T20:45:34.999Z,2.50
2023-03-12T20:48:02.007Z,2.10
2023-03-12T20:50:29.002Z,2.10
2023-03-12T20:52:55.991Z,1.98
2023-03-12T20:55:23.026Z,2.63
2023-03-12T20:57:50.078Z,3.17
2023-03-12T21:00:17.511Z,2.53
2023-03-12T21:02:44.489Z,2.67
2023-03-12T21:05:11.576Z,3.08
2023-03-12T21:07:38.491Z,2.80
2023-03-12T21:10:05.992Z,2.10
2023-03-12T21:12:32.948Z,2.78
2023-03-12T21:15:06.403Z,2.40
2023-03-12T21:17:35.061Z,2.53
2023-03-12T21:20:03.260Z,3.33
2023-03-12T21:22:32.061Z,3.15
2023-03-12T21:24:59.063Z,2.47
2023-03-12T21:27:26.324Z,2.60
2023-03-12T21:29:53.984Z,2.28
2023-03-12T21:32:22.124Z,2.85
2023-03-12T21:34:50.050Z,2.30
2023-03-12T21:37:17.224Z,2.10
2023-03-12T21:39:44.243Z,2.20
2023-03-12T21:42:11.526Z,2.53
2023-03-12T21:44:38.762Z,3.33
2023-03-12T21:47:05.920Z,2.20
2023-03-12T21:49:34.960Z,2.55
2023-03-12T21:52:03.330Z,2.45
2023-03-12T21:54:34.328Z,2.78
2023-03-12T21:57:02.903Z,2.08
2023-03-12T21:59:30.853Z,2.95
2023-03-12T22:01:58.496Z,2.40
2023-03-12T22:04:25.852Z,3.13
2023-03-12T22:06:52.818Z,2.70
2023-03-12T22:09:19.707Z,3.10
2023-03-12T22:11:46.644Z,2.60
2023-03-12T22:14:13.552Z,3.15
2023-03-12T22:16:40.552Z,2.80
2023-03-12T22:19:07.966Z,2.85
2023-03-12T22:21:35.061Z,2.78
2023-03-12T22:24:02.678Z,2.72
2023-03-12T22:26:29.932Z,2.67
2023-03-12T22:28:58.608Z,3.20
2023-03-12T22:31:27.995Z,2.67
2023-03-12T22:33:56.293Z,2.75
2023-03-12T22:36:23.510Z,2.58
2023-03-12T22:38:50.948Z,2.97
2023-03-12T22:41:21.231Z,2.63
2023-03-12T22:43:49.822Z,2.45
2023-03-12T22:46:18.087Z,3.35
2023-03-12T22:48:46.255Z,2.80
2023-03-12T22:51:13.445Z,3.00
2023-03-12T22:53:40.399Z,2.97
2023-03-12T22:56:09.509Z,3.10
2023-03-12T22:58:37.009Z,2.97
2023-03-12T23:01:09.681Z,2.50
2023-03-12T23:03:37.757Z,2.47
2023-03-12T23:06:12.323Z,2.63
2023-03-12T23:08:39.523Z,2.60
2023-03-12T23:11:07.537Z,2.78
2023-03-12T23:13:36.166Z,2.60
2023-03-12T23:16:05.054Z,2.08
2023-03-12T23:18:32.988Z,2.50
2023-03-12T23:21:01.752Z,3.05
2023-03-12T23:23:29.633Z,2.75
2023-03-12T23:25:58.591Z,2.60
2023-03-12T23:28:26.704Z,2.53
2023-03-12T23:31:02.466Z,3.00
2023-03-12T23:33:30.631Z,2.50
2023-03-12T23:36:10.694Z,2.95
2023-03-12T23:38:37.987Z,3.17
2023-03-12T23:41:06.071Z,2.85
2023-03-12T23:43:33.391Z,2.42
2023-03-12T23:46:02.300Z,2.70
2023-03-12T23:48:30.988Z,2.60
2023-03-12T23:51:18.105Z,3.10
2023-03-12T23:53:48.072Z,2.85
2023-03-12T23:56:20.916Z,3.08
2023-03-12T23:58:49.520Z,2.60
